This is the latest recevied weather packets stored in our database for station/object N3TCR-13. If no packets are shown the sender has not sent any weather packets the latest 10 day(s).
| Time | Temp. | Humidity | Pressure | Rain* | Wind** | Luminosity | Snow |
|---|---|---|---|---|---|---|---|
| 1777811416 | 7.78° C | 73% | 1000.5 hPa | 0 mm | - | - | - |
| 1777806918 | 4.44° C | 97% | 999.7 hPa | 0 mm | - | - | - |
| 1777805117 | 2.78° C | 100% | 999.2 hPa | 0 mm | - | - | - |
| 1777801517 | 2.78° C | 100% | 998.6 hPa | 0 mm | - | - | - |
| 1777799719 | 2.78° C | 100% | 998.5 hPa | 0 mm | - | - | - |
| 1777797016 | 3.33° C | 100% | 998.3 hPa | 0 mm | - | - | - |
| 1777789817 | 3.89° C | 100% | 997.5 hPa | 0 mm | - | - | - |
| 1777786217 | 3.89° C | 100% | 997.6 hPa | 0 mm | - | - | - |
| 1777784417 | 4.44° C | 95% | 997.6 hPa | 0 mm | - | - | - |
| 1777779921 | 6.11° C | 78% | 997.9 hPa | 0 mm | - | - | - |
| 1777774518 | 8.89° C | 65% | 997.9 hPa | 0 mm | - | - | - |
| 1777773618 | 8.89° C | 63% | 997.7 hPa | 0 mm | - | - | - |
| 1777769118 | 9.44° C | 59% | 996.8 hPa | 0 mm | - | - | - |
| 1777765518 | 11.11° C | 55% | 996.2 hPa | 0 mm | - | - | - |
| 1777756518 | 13.33° C | 47% | 995.7 hPa | 0 mm | - | - | - |
| 1777752917 | 12.78° C | 47% | 995.5 hPa | 0 mm | - | - | - |
| 1777748417 | 13.33° C | 47% | 996.7 hPa | 0 mm | - | - | - |
| 1777734917 | 11.11° C | 63% | 998.4 hPa | 0 mm | - | - | - |
| 1777733118 | 10.56° C | 67% | 998.3 hPa | 0 mm | - | - | - |
| 1777730417 | 10° C | 70% | 998.2 hPa | 0 mm | - | - | - |
| 1777725917 | 7.78° C | 96% | 998.5 hPa | 0 mm | - | - | - |
| 1777720517 | 6.67° C | 100% | 998.2 hPa | 0 mm | - | - | - |
| 1777711517 | 7.78° C | 100% | 997.7 hPa | 0 mm | - | - | - |
| 1777709721 | 7.78° C | 100% | 997.3 hPa | 0 mm | - | - | - |
| 1777708817 | 8.33° C | 100% | 997.2 hPa | 0 mm | - | - | - |
* Rain latest hour (hover to see other rain measurements)
** Current wind speed in m/s (hover to see current wind gust speed)